sensor_id;sensor_type;location;lat;lon;timestamp;P1;durP1;ratioP1;P2;durP2;ratioP2
53879;SDS011;39791;53.184;5.486;2022-11-02T00:00:19;8.63;;;1.92;;
53879;SDS011;39791;53.184;5.486;2022-11-02T00:02:44;14.88;;;2.03;;
53879;SDS011;39791;53.184;5.486;2022-11-02T00:05:11;9.30;;;2.08;;
53879;SDS011;39791;53.184;5.486;2022-11-02T00:07:37;17.27;;;2.58;;
53879;SDS011;39791;53.184;5.486;2022-11-02T00:10:03;11.55;;;2.40;;
53879;SDS011;39791;53.184;5.486;2022-11-02T00:12:29;4.15;;;1.10;;
53879;SDS011;39791;53.184;5.486;2022-11-02T00:14:55;6.20;;;1.48;;
53879;SDS011;39791;53.184;5.486;2022-11-02T00:17:21;3.75;;;1.70;;
53879;SDS011;39791;53.184;5.486;2022-11-02T00:19:46;8.13;;;1.77;;
53879;SDS011;39791;53.184;5.486;2022-11-02T00:22:12;14.57;;;2.05;;
53879;SDS011;39791;53.184;5.486;2022-11-02T00:24:38;14.82;;;2.22;;
53879;SDS011;39791;53.184;5.486;2022-11-02T00:27:03;9.32;;;2.45;;
53879;SDS011;39791;53.184;5.486;2022-11-02T00:29:29;6.45;;;2.28;;
53879;SDS011;39791;53.184;5.486;2022-11-02T00:31:55;10.15;;;2.10;;
53879;SDS011;39791;53.184;5.486;2022-11-02T00:34:20;9.23;;;2.08;;
53879;SDS011;39791;53.184;5.486;2022-11-02T00:36:46;9.05;;;2.10;;
53879;SDS011;39791;53.184;5.486;2022-11-02T00:39:12;9.20;;;1.90;;
53879;SDS011;39791;53.184;5.486;2022-11-02T00:41:37;10.52;;;1.77;;
53879;SDS011;39791;53.184;5.486;2022-11-02T00:44:03;6.65;;;1.70;;
53879;SDS011;39791;53.184;5.486;2022-11-02T00:46:28;6.25;;;1.88;;
53879;SDS011;39791;53.184;5.486;2022-11-02T00:48:54;5.85;;;1.90;;
53879;SDS011;39791;53.184;5.486;2022-11-02T00:51:19;13.07;;;2.50;;
53879;SDS011;39791;53.184;5.486;2022-11-02T00:53:45;6.28;;;1.88;;
53879;SDS011;39791;53.184;5.486;2022-11-02T00:56:10;3.50;;;1.48;;
53879;SDS011;39791;53.184;5.486;2022-11-02T00:58:36;7.47;;;2.10;;
53879;SDS011;39791;53.184;5.486;2022-11-02T01:01:05;6.90;;;2.15;;
53879;SDS011;39791;53.184;5.486;2022-11-02T01:03:31;6.40;;;1.70;;
53879;SDS011;39791;53.184;5.486;2022-11-02T01:05:57;3.38;;;1.50;;
53879;SDS011;39791;53.184;5.486;2022-11-02T01:08:22;8.57;;;2.30;;
53879;SDS011;39791;53.184;5.486;2022-11-02T01:10:48;8.25;;;1.75;;
53879;SDS011;39791;53.184;5.486;2022-11-02T01:13:13;8.82;;;2.13;;
53879;SDS011;39791;53.184;5.486;2022-11-02T01:15:39;7.50;;;2.30;;
53879;SDS011;39791;53.184;5.486;2022-11-02T01:18:05;13.75;;;2.25;;
53879;SDS011;39791;53.184;5.486;2022-11-02T01:20:30;6.13;;;2.10;;
53879;SDS011;39791;53.184;5.486;2022-11-02T01:22:56;5.68;;;2.10;;
53879;SDS011;39791;53.184;5.486;2022-11-02T01:25:23;4.82;;;1.80;;
53879;SDS011;39791;53.184;5.486;2022-11-02T01:27:49;13.63;;;2.28;;
53879;SDS011;39791;53.184;5.486;2022-11-02T01:30:14;7.28;;;1.90;;
53879;SDS011;39791;53.184;5.486;2022-11-02T01:32:40;14.48;;;1.88;;
53879;SDS011;39791;53.184;5.486;2022-11-02T01:35:06;6.93;;;1.63;;
53879;SDS011;39791;53.184;5.486;2022-11-02T01:37:31;6.20;;;1.88;;
53879;SDS011;39791;53.184;5.486;2022-11-02T01:39:57;11.55;;;1.60;;
53879;SDS011;39791;53.184;5.486;2022-11-02T01:42:23;10.70;;;1.67;;
53879;SDS011;39791;53.184;5.486;2022-11-02T01:44:49;3.72;;;1.27;;
53879;SDS011;39791;53.184;5.486;2022-11-02T01:47:28;7.72;;;1.45;;
53879;SDS011;39791;53.184;5.486;2022-11-02T01:50:03;5.13;;;1.50;;
53879;SDS011;39791;53.184;5.486;2022-11-02T01:52:33;8.43;;;2.00;;
53879;SDS011;39791;53.184;5.486;2022-11-02T01:55:03;4.05;;;1.55;;
53879;SDS011;39791;53.184;5.486;2022-11-02T01:57:38;5.97;;;1.58;;
53879;SDS011;39791;53.184;5.486;2022-11-02T02:00:10;4.68;;;1.30;;
53879;SDS011;39791;53.184;5.486;2022-11-02T02:02:39;3.03;;;1.08;;
53879;SDS011;39791;53.184;5.486;2022-11-02T02:05:09;7.05;;;1.73;;
53879;SDS011;39791;53.184;5.486;2022-11-02T02:07:37;6.03;;;1.40;;
53879;SDS011;39791;53.184;5.486;2022-11-02T02:10:04;6.32;;;1.63;;
53879;SDS011;39791;53.184;5.486;2022-11-02T02:12:30;6.38;;;1.70;;
53879;SDS011;39791;53.184;5.486;2022-11-02T02:14:58;5.38;;;1.58;;
53879;SDS011;39791;53.184;5.486;2022-11-02T02:17:27;7.22;;;1.60;;
53879;SDS011;39791;53.184;5.486;2022-11-02T02:20:09;7.32;;;1.80;;
53879;SDS011;39791;53.184;5.486;2022-11-02T02:26:00;3.38;;;1.70;;
53879;SDS011;39791;53.184;5.486;2022-11-02T02:29:14;3.55;;;1.27;;
53879;SDS011;39791;53.184;5.486;2022-11-02T02:31:47;4.47;;;1.67;;
53879;SDS011;39791;53.184;5.486;2022-11-02T02:34:32;5.03;;;1.45;;
53879;SDS011;39791;53.184;5.486;2022-11-02T02:37:04;6.53;;;1.42;;
53879;SDS011;39791;53.184;5.486;2022-11-02T02:42:22;5.78;;;1.77;;
53879;SDS011;39791;53.184;5.486;2022-11-02T02:48:35;4.60;;;2.45;;
53879;SDS011;39791;53.184;5.486;2022-11-02T02:51:05;10.07;;;2.03;;
53879;SDS011;39791;53.184;5.486;2022-11-02T02:53:37;6.77;;;1.60;;
53879;SDS011;39791;53.184;5.486;2022-11-02T02:56:08;5.78;;;1.88;;
53879;SDS011;39791;53.184;5.486;2022-11-02T02:58:37;10.82;;;2.15;;
53879;SDS011;39791;53.184;5.486;2022-11-02T03:01:20;10.38;;;2.53;;
53879;SDS011;39791;53.184;5.486;2022-11-02T03:03:46;4.13;;;1.27;;
53879;SDS011;39791;53.184;5.486;2022-11-02T03:09:00;9.75;;;1.70;;
53879;SDS011;39791;53.184;5.486;2022-11-02T03:11:27;10.07;;;2.03;;
53879;SDS011;39791;53.184;5.486;2022-11-02T03:17:15;4.97;;;1.48;;
53879;SDS011;39791;53.184;5.486;2022-11-02T03:19:48;7.75;;;1.52;;
53879;SDS011;39791;53.184;5.486;2022-11-02T03:25:17;10.80;;;2.30;;
53879;SDS011;39791;53.184;5.486;2022-11-02T03:27:55;8.32;;;2.00;;
53879;SDS011;39791;53.184;5.486;2022-11-02T03:30:36;7.78;;;2.35;;
53879;SDS011;39791;53.184;5.486;2022-11-02T03:33:18;11.63;;;2.38;;
53879;SDS011;39791;53.184;5.486;2022-11-02T03:36:03;9.95;;;1.95;;
53879;SDS011;39791;53.184;5.486;2022-11-02T03:38:35;5.82;;;1.85;;
53879;SDS011;39791;53.184;5.486;2022-11-02T03:41:09;10.18;;;2.05;;
53879;SDS011;39791;53.184;5.486;2022-11-02T03:43:36;10.27;;;2.17;;
53879;SDS011;39791;53.184;5.486;2022-11-02T03:46:04;7.88;;;2.28;;
53879;SDS011;39791;53.184;5.486;2022-11-02T03:48:37;20.00;;;2.50;;
53879;SDS011;39791;53.184;5.486;2022-11-02T03:51:07;8.38;;;2.15;;
53879;SDS011;39791;53.184;5.486;2022-11-02T03:56:18;8.73;;;1.92;;
53879;SDS011;39791;53.184;5.486;2022-11-02T03:58:49;14.27;;;2.20;;
53879;SDS011;39791;53.184;5.486;2022-11-02T04:01:14;11.02;;;2.10;;
53879;SDS011;39791;53.184;5.486;2022-11-02T04:03:43;13.57;;;1.90;;
53879;SDS011;39791;53.184;5.486;2022-11-02T04:06:10;11.95;;;2.65;;
53879;SDS011;39791;53.184;5.486;2022-11-02T04:08:38;14.20;;;2.85;;
53879;SDS011;39791;53.184;5.486;2022-11-02T04:11:06;10.43;;;2.22;;
53879;SDS011;39791;53.184;5.486;2022-11-02T04:13:51;12.40;;;2.20;;
53879;SDS011;39791;53.184;5.486;2022-11-02T04:16:35;10.65;;;2.03;;
53879;SDS011;39791;53.184;5.486;2022-11-02T04:19:01;9.55;;;2.13;;
53879;SDS011;39791;53.184;5.486;2022-11-02T04:21:45;11.07;;;2.17;;
53879;SDS011;39791;53.184;5.486;2022-11-02T04:24:34;10.68;;;2.60;;
53879;SDS011;39791;53.184;5.486;2022-11-02T04:27:18;13.20;;;2.88;;
53879;SDS011;39791;53.184;5.486;2022-11-02T04:29:43;7.70;;;1.85;;
53879;SDS011;39791;53.184;5.486;2022-11-02T04:32:09;9.48;;;2.30;;
53879;SDS011;39791;53.184;5.486;2022-11-02T04:34:34;8.10;;;2.65;;
53879;SDS011;39791;53.184;5.486;2022-11-02T04:37:00;10.15;;;2.15;;
53879;SDS011;39791;53.184;5.486;2022-11-02T04:39:46;8.40;;;2.08;;
53879;SDS011;39791;53.184;5.486;2022-11-02T04:42:11;15.55;;;2.65;;
53879;SDS011;39791;53.184;5.486;2022-11-02T04:44:37;26.58;;;3.80;;
53879;SDS011;39791;53.184;5.486;2022-11-02T04:47:02;20.00;;;3.38;;
53879;SDS011;39791;53.184;5.486;2022-11-02T04:49:28;21.95;;;3.00;;
53879;SDS011;39791;53.184;5.486;2022-11-02T04:51:53;22.48;;;3.08;;
53879;SDS011;39791;53.184;5.486;2022-11-02T04:54:19;15.90;;;2.72;;
53879;SDS011;39791;53.184;5.486;2022-11-02T04:56:44;22.55;;;2.92;;
53879;SDS011;39791;53.184;5.486;2022-11-02T04:59:10;16.23;;;2.42;;
53879;SDS011;39791;53.184;5.486;2022-11-02T05:01:36;12.88;;;2.40;;
53879;SDS011;39791;53.184;5.486;2022-11-02T05:04:01;25.48;;;2.95;;
53879;SDS011;39791;53.184;5.486;2022-11-02T05:06:27;18.77;;;3.72;;
53879;SDS011;39791;53.184;5.486;2022-11-02T05:08:52;17.67;;;2.80;;
53879;SDS011;39791;53.184;5.486;2022-11-02T05:11:18;19.17;;;2.65;;
53879;SDS011;39791;53.184;5.486;2022-11-02T05:13:44;20.92;;;3.22;;
53879;SDS011;39791;53.184;5.486;2022-11-02T05:16:14;22.05;;;3.85;;
53879;SDS011;39791;53.184;5.486;2022-11-02T05:18:41;25.60;;;3.42;;
53879;SDS011;39791;53.184;5.486;2022-11-02T05:21:07;29.95;;;3.45;;
53879;SDS011;39791;53.184;5.486;2022-11-02T05:23:34;16.58;;;2.90;;
53879;SDS011;39791;53.184;5.486;2022-11-02T05:26:00;16.33;;;2.80;;
53879;SDS011;39791;53.184;5.486;2022-11-02T05:28:28;15.63;;;3.10;;
53879;SDS011;39791;53.184;5.486;2022-11-02T05:30:56;14.57;;;3.28;;
53879;SDS011;39791;53.184;5.486;2022-11-02T05:33:22;24.63;;;3.30;;
53879;SDS011;39791;53.184;5.486;2022-11-02T05:35:48;18.27;;;3.22;;
53879;SDS011;39791;53.184;5.486;2022-11-02T05:38:13;16.85;;;3.13;;
53879;SDS011;39791;53.184;5.486;2022-11-02T05:40:39;16.83;;;3.10;;
53879;SDS011;39791;53.184;5.486;2022-11-02T05:43:06;19.58;;;2.88;;
53879;SDS011;39791;53.184;5.486;2022-11-02T05:45:33;19.17;;;2.67;;
53879;SDS011;39791;53.184;5.486;2022-11-02T05:47:59;15.20;;;2.80;;
53879;SDS011;39791;53.184;5.486;2022-11-02T05:50:26;20.35;;;3.13;;
53879;SDS011;39791;53.184;5.486;2022-11-02T05:52:52;15.98;;;2.72;;
53879;SDS011;39791;53.184;5.486;2022-11-02T05:55:18;14.60;;;2.85;;
53879;SDS011;39791;53.184;5.486;2022-11-02T05:57:49;11.32;;;2.88;;
53879;SDS011;39791;53.184;5.486;2022-11-02T06:00:18;15.20;;;2.40;;
53879;SDS011;39791;53.184;5.486;2022-11-02T06:02:45;22.25;;;2.90;;
53879;SDS011;39791;53.184;5.486;2022-11-02T06:05:11;21.90;;;3.58;;
53879;SDS011;39791;53.184;5.486;2022-11-02T06:07:36;16.20;;;2.28;;
53879;SDS011;39791;53.184;5.486;2022-11-02T06:10:02;11.75;;;2.13;;
53879;SDS011;39791;53.184;5.486;2022-11-02T06:12:28;11.32;;;2.42;;
53879;SDS011;39791;53.184;5.486;2022-11-02T06:14:53;10.13;;;2.65;;
53879;SDS011;39791;53.184;5.486;2022-11-02T06:17:19;17.90;;;2.55;;
53879;SDS011;39791;53.184;5.486;2022-11-02T06:19:44;30.45;;;3.00;;
53879;SDS011;39791;53.184;5.486;2022-11-02T06:22:10;13.32;;;2.53;;
53879;SDS011;39791;53.184;5.486;2022-11-02T06:24:35;16.63;;;2.65;;
53879;SDS011;39791;53.184;5.486;2022-11-02T06:27:01;15.52;;;2.97;;
53879;SDS011;39791;53.184;5.486;2022-11-02T06:29:27;24.73;;;3.00;;
53879;SDS011;39791;53.184;5.486;2022-11-02T06:31:52;16.40;;;2.88;;
53879;SDS011;39791;53.184;5.486;2022-11-02T06:34:18;13.05;;;2.10;;
53879;SDS011;39791;53.184;5.486;2022-11-02T06:36:43;15.32;;;3.15;;
53879;SDS011;39791;53.184;5.486;2022-11-02T06:39:09;10.85;;;2.25;;
53879;SDS011;39791;53.184;5.486;2022-11-02T06:41:34;10.68;;;2.28;;
53879;SDS011;39791;53.184;5.486;2022-11-02T06:44:00;11.10;;;2.22;;
53879;SDS011;39791;53.184;5.486;2022-11-02T06:46:25;14.63;;;2.45;;
53879;SDS011;39791;53.184;5.486;2022-11-02T06:48:51;15.10;;;2.70;;
53879;SDS011;39791;53.184;5.486;2022-11-02T06:51:16;10.35;;;2.67;;
53879;SDS011;39791;53.184;5.486;2022-11-02T06:53:42;17.60;;;2.70;;
53879;SDS011;39791;53.184;5.486;2022-11-02T06:56:08;17.30;;;2.63;;
53879;SDS011;39791;53.184;5.486;2022-11-02T06:58:33;18.58;;;3.25;;
53879;SDS011;39791;53.184;5.486;2022-11-02T07:01:03;19.75;;;2.95;;
53879;SDS011;39791;53.184;5.486;2022-11-02T07:03:31;22.45;;;3.92;;
53879;SDS011;39791;53.184;5.486;2022-11-02T07:05:57;15.73;;;3.20;;
53879;SDS011;39791;53.184;5.486;2022-11-02T07:08:23;20.27;;;3.17;;
53879;SDS011;39791;53.184;5.486;2022-11-02T07:10:49;19.80;;;2.80;;
53879;SDS011;39791;53.184;5.486;2022-11-02T07:13:15;14.93;;;3.13;;
53879;SDS011;39791;53.184;5.486;2022-11-02T07:15:41;14.80;;;2.72;;
53879;SDS011;39791;53.184;5.486;2022-11-02T07:18:07;15.02;;;2.60;;
53879;SDS011;39791;53.184;5.486;2022-11-02T07:20:32;26.20;;;3.80;;
53879;SDS011;39791;53.184;5.486;2022-11-02T07:22:59;13.88;;;2.70;;
53879;SDS011;39791;53.184;5.486;2022-11-02T07:25:26;25.75;;;3.00;;
53879;SDS011;39791;53.184;5.486;2022-11-02T07:27:55;13.27;;;2.55;;
53879;SDS011;39791;53.184;5.486;2022-11-02T07:30:20;18.60;;;3.35;;
53879;SDS011;39791;53.184;5.486;2022-11-02T07:32:46;15.20;;;3.38;;
53879;SDS011;39791;53.184;5.486;2022-11-02T07:35:12;13.82;;;2.28;;
53879;SDS011;39791;53.184;5.486;2022-11-02T07:37:39;16.33;;;3.38;;
53879;SDS011;39791;53.184;5.486;2022-11-02T07:40:06;15.35;;;2.72;;
53879;SDS011;39791;53.184;5.486;2022-11-02T07:42:33;13.50;;;2.70;;
53879;SDS011;39791;53.184;5.486;2022-11-02T07:44:59;13.45;;;2.30;;
53879;SDS011;39791;53.184;5.486;2022-11-02T07:47:25;18.75;;;2.83;;
53879;SDS011;39791;53.184;5.486;2022-11-02T07:49:50;16.85;;;3.03;;
53879;SDS011;39791;53.184;5.486;2022-11-02T07:52:16;16.20;;;3.05;;
53879;SDS011;39791;53.184;5.486;2022-11-02T07:54:41;15.63;;;2.65;;
53879;SDS011;39791;53.184;5.486;2022-11-02T07:57:07;12.40;;;2.53;;
53879;SDS011;39791;53.184;5.486;2022-11-02T07:59:32;14.25;;;2.38;;
53879;SDS011;39791;53.184;5.486;2022-11-02T08:02:00;14.32;;;3.33;;
53879;SDS011;39791;53.184;5.486;2022-11-02T08:04:26;14.40;;;2.67;;
53879;SDS011;39791;53.184;5.486;2022-11-02T08:06:51;13.85;;;2.55;;
53879;SDS011;39791;53.184;5.486;2022-11-02T08:09:17;14.88;;;2.83;;
53879;SDS011;39791;53.184;5.486;2022-11-02T08:11:43;10.25;;;2.13;;
53879;SDS011;39791;53.184;5.486;2022-11-02T08:14:08;24.98;;;3.70;;
53879;SDS011;39791;53.184;5.486;2022-11-02T08:16:34;16.10;;;2.67;;
53879;SDS011;39791;53.184;5.486;2022-11-02T08:18:59;13.85;;;2.75;;
53879;SDS011;39791;53.184;5.486;2022-11-02T08:21:25;15.07;;;3.08;;
53879;SDS011;39791;53.184;5.486;2022-11-02T08:23:50;16.15;;;2.92;;
53879;SDS011;39791;53.184;5.486;2022-11-02T08:26:16;14.77;;;2.65;;
53879;SDS011;39791;53.184;5.486;2022-11-02T08:28:42;21.40;;;3.63;;
53879;SDS011;39791;53.184;5.486;2022-11-02T08:31:13;22.63;;;3.55;;
53879;SDS011;39791;53.184;5.486;2022-11-02T08:33:40;19.30;;;3.28;;
53879;SDS011;39791;53.184;5.486;2022-11-02T08:36:06;20.25;;;3.40;;
53879;SDS011;39791;53.184;5.486;2022-11-02T08:38:32;16.27;;;3.00;;
53879;SDS011;39791;53.184;5.486;2022-11-02T08:40:58;16.33;;;2.88;;
53879;SDS011;39791;53.184;5.486;2022-11-02T08:43:23;19.38;;;2.85;;
53879;SDS011;39791;53.184;5.486;2022-11-02T08:45:49;14.65;;;2.67;;
53879;SDS011;39791;53.184;5.486;2022-11-02T08:48:15;14.23;;;2.80;;
53879;SDS011;39791;53.184;5.486;2022-11-02T08:50:40;16.40;;;2.80;;
53879;SDS011;39791;53.184;5.486;2022-11-02T08:53:06;17.15;;;3.45;;
53879;SDS011;39791;53.184;5.486;2022-11-02T08:55:32;14.80;;;2.85;;
53879;SDS011;39791;53.184;5.486;2022-11-02T08:57:58;16.05;;;2.75;;
53879;SDS011;39791;53.184;5.486;2022-11-02T09:00:25;20.15;;;2.72;;
53879;SDS011;39791;53.184;5.486;2022-11-02T09:03:03;16.33;;;2.95;;
53879;SDS011;39791;53.184;5.486;2022-11-02T09:05:33;18.20;;;2.58;;
53879;SDS011;39791;53.184;5.486;2022-11-02T09:08:01;17.33;;;2.80;;
53879;SDS011;39791;53.184;5.486;2022-11-02T09:10:29;16.52;;;3.03;;
53879;SDS011;39791;53.184;5.486;2022-11-02T09:13:00;16.33;;;3.15;;
53879;SDS011;39791;53.184;5.486;2022-11-02T09:15:27;11.82;;;2.50;;
53879;SDS011;39791;53.184;5.486;2022-11-02T09:17:53;17.33;;;2.83;;
53879;SDS011;39791;53.184;5.486;2022-11-02T09:20:19;9.25;;;2.33;;
53879;SDS011;39791;53.184;5.486;2022-11-02T09:22:46;16.30;;;2.63;;
53879;SDS011;39791;53.184;5.486;2022-11-02T09:25:12;19.90;;;3.10;;
53879;SDS011;39791;53.184;5.486;2022-11-02T09:27:39;14.60;;;2.67;;
53879;SDS011;39791;53.184;5.486;2022-11-02T09:30:06;17.83;;;3.25;;
53879;SDS011;39791;53.184;5.486;2022-11-02T09:32:32;15.75;;;2.65;;
53879;SDS011;39791;53.184;5.486;2022-11-02T09:34:58;21.48;;;2.78;;
53879;SDS011;39791;53.184;5.486;2022-11-02T09:37:25;11.75;;;2.65;;
53879;SDS011;39791;53.184;5.486;2022-11-02T09:39:51;10.73;;;2.30;;
53879;SDS011;39791;53.184;5.486;2022-11-02T09:45:07;12.30;;;2.70;;
53879;SDS011;39791;53.184;5.486;2022-11-02T09:47:46;17.17;;;2.47;;
53879;SDS011;39791;53.184;5.486;2022-11-02T09:50:17;18.30;;;2.67;;
53879;SDS011;39791;53.184;5.486;2022-11-02T09:52:51;15.73;;;2.45;;
53879;SDS011;39791;53.184;5.486;2022-11-02T09:55:23;12.77;;;2.75;;
53879;SDS011;39791;53.184;5.486;2022-11-02T09:57:53;16.00;;;2.80;;
53879;SDS011;39791;53.184;5.486;2022-11-02T10:00:32;22.48;;;3.13;;
53879;SDS011;39791;53.184;5.486;2022-11-02T10:03:04;18.08;;;3.40;;
53879;SDS011;39791;53.184;5.486;2022-11-02T10:06:05;16.20;;;2.88;;
53879;SDS011;39791;53.184;5.486;2022-11-02T10:11:31;26.10;;;2.85;;
53879;SDS011;39791;53.184;5.486;2022-11-02T10:14:04;14.02;;;2.88;;
53879;SDS011;39791;53.184;5.486;2022-11-02T10:16:36;17.60;;;2.30;;
53879;SDS011;39791;53.184;5.486;2022-11-02T10:19:17;15.80;;;2.58;;
53879;SDS011;39791;53.184;5.486;2022-11-02T10:21:46;14.05;;;2.72;;
53879;SDS011;39791;53.184;5.486;2022-11-02T10:24:21;15.35;;;2.67;;
53879;SDS011;39791;53.184;5.486;2022-11-02T10:26:47;17.55;;;2.72;;
53879;SDS011;39791;53.184;5.486;2022-11-02T10:29:29;17.75;;;2.78;;
53879;SDS011;39791;53.184;5.486;2022-11-02T10:31:58;14.57;;;2.47;;
53879;SDS011;39791;53.184;5.486;2022-11-02T10:34:25;10.80;;;1.92;;
53879;SDS011;39791;53.184;5.486;2022-11-02T10:45:42;15.52;;;2.50;;
53879;SDS011;39791;53.184;5.486;2022-11-02T10:51:13;17.00;;;2.28;;
53879;SDS011;39791;53.184;5.486;2022-11-02T10:53:41;15.77;;;2.50;;
53879;SDS011;39791;53.184;5.486;2022-11-02T10:56:18;5.63;;;1.70;;
53879;SDS011;39791;53.184;5.486;2022-11-02T11:01:24;13.70;;;2.30;;
53879;SDS011;39791;53.184;5.486;2022-11-02T11:04:01;10.45;;;1.90;;
53879;SDS011;39791;53.184;5.486;2022-11-02T11:09:16;10.98;;;2.03;;
53879;SDS011;39791;53.184;5.486;2022-11-02T11:12:00;14.50;;;2.13;;
53879;SDS011;39791;53.184;5.486;2022-11-02T11:14:28;8.10;;;1.75;;
53879;SDS011;39791;53.184;5.486;2022-11-02T11:16:58;7.05;;;2.50;;
53879;SDS011;39791;53.184;5.486;2022-11-02T11:22:22;14.77;;;2.40;;
53879;SDS011;39791;53.184;5.486;2022-11-02T11:27:43;9.82;;;2.15;;
53879;SDS011;39791;53.184;5.486;2022-11-02T11:33:05;12.50;;;2.22;;
53879;SDS011;39791;53.184;5.486;2022-11-02T11:35:36;13.13;;;2.88;;
53879;SDS011;39791;53.184;5.486;2022-11-02T11:38:36;13.07;;;3.13;;
53879;SDS011;39791;53.184;5.486;2022-11-02T11:40:56;11.73;;;2.25;;
53879;SDS011;39791;53.184;5.486;2022-11-02T11:43:27;13.75;;;2.45;;
53879;SDS011;39791;53.184;5.486;2022-11-02T11:46:01;15.50;;;2.67;;
53879;SDS011;39791;53.184;5.486;2022-11-02T11:48:32;16.63;;;3.28;;
53879;SDS011;39791;53.184;5.486;2022-11-02T11:51:19;10.05;;;2.17;;
53879;SDS011;39791;53.184;5.486;2022-11-02T11:54:16;12.63;;;2.42;;
53879;SDS011;39791;53.184;5.486;2022-11-02T11:57:15;15.25;;;2.70;;
53879;SDS011;39791;53.184;5.486;2022-11-02T11:59:48;13.95;;;2.40;;
53879;SDS011;39791;53.184;5.486;2022-11-02T12:02:29;15.63;;;2.55;;
53879;SDS011;39791;53.184;5.486;2022-11-02T12:05:00;19.10;;;3.17;;
53879;SDS011;39791;53.184;5.486;2022-11-02T12:07:44;17.63;;;3.33;;
53879;SDS011;39791;53.184;5.486;2022-11-02T12:10:25;15.93;;;2.72;;
53879;SDS011;39791;53.184;5.486;2022-11-02T12:13:06;11.82;;;2.38;;
53879;SDS011;39791;53.184;5.486;2022-11-02T12:20:49;17.13;;;2.88;;
53879;SDS011;39791;53.184;5.486;2022-11-02T12:23:31;23.50;;;3.88;;
53879;SDS011;39791;53.184;5.486;2022-11-02T12:43:38;5.40;;;1.95;;
53879;SDS011;39791;53.184;5.486;2022-11-02T12:48:48;11.70;;;1.65;;
53879;SDS011;39791;53.184;5.486;2022-11-02T12:51:41;13.80;;;2.28;;
53879;SDS011;39791;53.184;5.486;2022-11-02T12:54:15;12.43;;;3.13;;
53879;SDS011;39791;53.184;5.486;2022-11-02T12:56:51;13.88;;;2.42;;
53879;SDS011;39791;53.184;5.486;2022-11-02T12:59:20;9.23;;;1.95;;
53879;SDS011;39791;53.184;5.486;2022-11-02T13:01:48;12.95;;;2.38;;
53879;SDS011;39791;53.184;5.486;2022-11-02T13:04:24;13.70;;;2.40;;
53879;SDS011;39791;53.184;5.486;2022-11-02T13:06:59;10.13;;;2.83;;
53879;SDS011;39791;53.184;5.486;2022-11-02T13:09:39;17.00;;;2.05;;
53879;SDS011;39791;53.184;5.486;2022-11-02T13:12:14;17.65;;;2.17;;
53879;SDS011;39791;53.184;5.486;2022-11-02T13:14:47;14.13;;;2.78;;
53879;SDS011;39791;53.184;5.486;2022-11-02T13:17:24;12.20;;;2.13;;
53879;SDS011;39791;53.184;5.486;2022-11-02T13:19:56;9.82;;;2.25;;
53879;SDS011;39791;53.184;5.486;2022-11-02T13:22:28;16.98;;;2.95;;
53879;SDS011;39791;53.184;5.486;2022-11-02T13:25:20;10.63;;;2.45;;
53879;SDS011;39791;53.184;5.486;2022-11-02T13:27:48;11.70;;;2.50;;
53879;SDS011;39791;53.184;5.486;2022-11-02T13:30:20;13.20;;;2.40;;
53879;SDS011;39791;53.184;5.486;2022-11-02T13:33:02;9.65;;;2.10;;
53879;SDS011;39791;53.184;5.486;2022-11-02T13:35:36;15.32;;;2.22;;
53879;SDS011;39791;53.184;5.486;2022-11-02T13:40:38;8.20;;;2.13;;
53879;SDS011;39791;53.184;5.486;2022-11-02T13:43:17;8.93;;;2.40;;
53879;SDS011;39791;53.184;5.486;2022-11-02T13:48:54;14.43;;;3.13;;
53879;SDS011;39791;53.184;5.486;2022-11-02T13:51:48;11.77;;;1.98;;
53879;SDS011;39791;53.184;5.486;2022-11-02T13:54:25;11.73;;;2.10;;
53879;SDS011;39791;53.184;5.486;2022-11-02T13:56:58;11.55;;;2.08;;
53879;SDS011;39791;53.184;5.486;2022-11-02T13:59:25;12.63;;;1.83;;
53879;SDS011;39791;53.184;5.486;2022-11-02T14:01:58;9.52;;;1.80;;
53879;SDS011;39791;53.184;5.486;2022-11-02T14:04:26;10.77;;;2.50;;
53879;SDS011;39791;53.184;5.486;2022-11-02T14:07:01;9.32;;;1.95;;
53879;SDS011;39791;53.184;5.486;2022-11-02T14:09:36;13.70;;;2.28;;
53879;SDS011;39791;53.184;5.486;2022-11-02T14:14:37;9.23;;;2.60;;
53879;SDS011;39791;53.184;5.486;2022-11-02T14:17:10;9.68;;;1.85;;
53879;SDS011;39791;53.184;5.486;2022-11-02T14:22:14;6.90;;;1.65;;
53879;SDS011;39791;53.184;5.486;2022-11-02T14:37:53;15.80;;;2.20;;
53879;SDS011;39791;53.184;5.486;2022-11-02T14:41:04;15.10;;;2.75;;
53879;SDS011;39791;53.184;5.486;2022-11-02T14:49:22;10.18;;;2.00;;
53879;SDS011;39791;53.184;5.486;2022-11-02T14:54:36;13.88;;;2.20;;
53879;SDS011;39791;53.184;5.486;2022-11-02T15:00:00;6.88;;;1.60;;
53879;SDS011;39791;53.184;5.486;2022-11-02T15:02:42;7.18;;;1.42;;
53879;SDS011;39791;53.184;5.486;2022-11-02T15:05:17;13.68;;;2.33;;
53879;SDS011;39791;53.184;5.486;2022-11-02T15:07:56;11.35;;;2.25;;
53879;SDS011;39791;53.184;5.486;2022-11-02T15:15:42;8.55;;;1.95;;
53879;SDS011;39791;53.184;5.486;2022-11-02T15:31:52;11.68;;;2.78;;
53879;SDS011;39791;53.184;5.486;2022-11-02T15:34:20;6.20;;;2.42;;
53879;SDS011;39791;53.184;5.486;2022-11-02T15:36:54;9.18;;;2.50;;
53879;SDS011;39791;53.184;5.486;2022-11-02T15:39:21;12.77;;;2.70;;
53879;SDS011;39791;53.184;5.486;2022-11-02T15:49:24;13.35;;;2.60;;
53879;SDS011;39791;53.184;5.486;2022-11-02T15:52:05;6.57;;;2.00;;
53879;SDS011;39791;53.184;5.486;2022-11-02T15:55:12;7.18;;;1.85;;
53879;SDS011;39791;53.184;5.486;2022-11-02T16:01:03;8.40;;;2.50;;
53879;SDS011;39791;53.184;5.486;2022-11-02T16:03:35;8.38;;;2.22;;
53879;SDS011;39791;53.184;5.486;2022-11-02T16:06:02;11.35;;;2.17;;
53879;SDS011;39791;53.184;5.486;2022-11-02T16:08:31;6.00;;;1.80;;
53879;SDS011;39791;53.184;5.486;2022-11-02T16:11:02;7.20;;;2.20;;
53879;SDS011;39791;53.184;5.486;2022-11-02T16:13:28;10.27;;;2.17;;
53879;SDS011;39791;53.184;5.486;2022-11-02T16:16:03;10.38;;;2.13;;
53879;SDS011;39791;53.184;5.486;2022-11-02T16:21:04;11.73;;;2.50;;
53879;SDS011;39791;53.184;5.486;2022-11-02T16:23:32;7.90;;;1.77;;
53879;SDS011;39791;53.184;5.486;2022-11-02T16:26:00;13.20;;;2.55;;
53879;SDS011;39791;53.184;5.486;2022-11-02T16:28:29;13.18;;;3.35;;
53879;SDS011;39791;53.184;5.486;2022-11-02T16:33:30;13.95;;;2.50;;
53879;SDS011;39791;53.184;5.486;2022-11-02T16:35:59;9.75;;;2.00;;
53879;SDS011;39791;53.184;5.486;2022-11-02T16:38:25;14.80;;;2.63;;
53879;SDS011;39791;53.184;5.486;2022-11-02T16:40:52;15.65;;;3.45;;
53879;SDS011;39791;53.184;5.486;2022-11-02T16:43:18;12.95;;;2.20;;
53879;SDS011;39791;53.184;5.486;2022-11-02T16:45:48;11.18;;;2.33;;
53879;SDS011;39791;53.184;5.486;2022-11-02T16:48:19;8.68;;;2.13;;
53879;SDS011;39791;53.184;5.486;2022-11-02T16:51:02;12.45;;;2.28;;
53879;SDS011;39791;53.184;5.486;2022-11-02T16:53:41;8.48;;;1.63;;
53879;SDS011;39791;53.184;5.486;2022-11-02T16:58:55;11.95;;;2.90;;
53879;SDS011;39791;53.184;5.486;2022-11-02T17:01:28;13.97;;;2.13;;
53879;SDS011;39791;53.184;5.486;2022-11-02T17:04:22;14.43;;;2.78;;
53879;SDS011;39791;53.184;5.486;2022-11-02T17:06:49;10.00;;;2.15;;
53879;SDS011;39791;53.184;5.486;2022-11-02T17:09:24;6.85;;;1.85;;
53879;SDS011;39791;53.184;5.486;2022-11-02T17:11:54;17.23;;;2.70;;
53879;SDS011;39791;53.184;5.486;2022-11-02T17:14:33;15.73;;;2.67;;
53879;SDS011;39791;53.184;5.486;2022-11-02T17:17:06;12.32;;;2.38;;
53879;SDS011;39791;53.184;5.486;2022-11-02T17:22:36;10.32;;;2.00;;
53879;SDS011;39791;53.184;5.486;2022-11-02T17:30:58;13.30;;;2.40;;
53879;SDS011;39791;53.184;5.486;2022-11-02T17:35:52;15.43;;;3.17;;
53879;SDS011;39791;53.184;5.486;2022-11-02T17:38:20;8.98;;;2.53;;